createdAt,value
2018-07-27T00:01:22.525Z,9.07
2018-07-27T00:04:03.073Z,9.50
2018-07-27T00:06:44.555Z,8.40
2018-07-27T00:09:25.337Z,9.00
2018-07-27T00:12:06.138Z,8.77
2018-07-27T00:14:46.951Z,8.83
2018-07-27T00:17:27.995Z,8.97
2018-07-27T00:20:08.560Z,8.67
2018-07-27T00:22:49.682Z,9.50
2018-07-27T00:25:31.119Z,8.83
2018-07-27T00:28:11.991Z,8.33
2018-07-27T00:30:55.541Z,8.37
2018-07-27T00:33:36.417Z,8.73
2018-07-27T00:36:16.961Z,8.27
2018-07-27T00:38:58.343Z,8.23
2018-07-27T00:41:39.581Z,8.37
2018-07-27T00:44:20.217Z,7.73
2018-07-27T00:47:01.122Z,8.17
2018-07-27T00:49:42.051Z,7.90
2018-07-27T00:52:22.847Z,8.10
2018-07-27T00:55:04.071Z,7.80
2018-07-27T00:57:45.102Z,8.20
2018-07-27T01:00:25.928Z,8.57
2018-07-27T01:03:06.449Z,8.03
2018-07-27T01:05:46.833Z,8.90
2018-07-27T01:08:28.048Z,8.50
2018-07-27T01:11:09.186Z,10.23
2018-07-27T01:13:50.126Z,10.00
2018-07-27T01:16:30.867Z,9.07
2018-07-27T01:19:11.640Z,10.60
2018-07-27T01:21:52.486Z,10.67
2018-07-27T01:24:33.780Z,10.07
2018-07-27T01:27:14.583Z,9.70
2018-07-27T01:29:55.225Z,9.27
2018-07-27T01:32:36.118Z,9.17
2018-07-27T01:35:16.521Z,9.43
2018-07-27T01:37:57.954Z,8.70
2018-07-27T01:40:38.767Z,8.67
2018-07-27T01:43:19.122Z,9.53
2018-07-27T01:45:59.683Z,8.73
2018-07-27T01:48:40.252Z,8.73
2018-07-27T01:51:20.562Z,8.63
2018-07-27T01:54:01.256Z,8.13
2018-07-27T01:56:41.983Z,9.10
2018-07-27T01:59:22.648Z,8.70
2018-07-27T02:02:04.081Z,9.17
2018-07-27T02:04:45.242Z,8.43
2018-07-27T02:07:26.288Z,9.73
2018-07-27T02:10:07.524Z,10.53
2018-07-27T02:12:48.619Z,11.27
2018-07-27T02:15:29.477Z,11.10
2018-07-27T02:18:10.042Z,11.30
2018-07-27T02:20:50.878Z,11.00
2018-07-27T02:23:32.089Z,11.20
2018-07-27T02:26:13.436Z,10.97
2018-07-27T02:28:54.313Z,10.97
2018-07-27T02:31:35.523Z,10.77
2018-07-27T02:34:16.378Z,10.53
2018-07-27T02:36:56.837Z,10.77
2018-07-27T02:39:37.680Z,10.33
2018-07-27T02:42:18.889Z,11.50
2018-07-27T02:44:59.406Z,11.47
2018-07-27T02:47:40.663Z,11.83
2018-07-27T02:50:21.520Z,12.17
2018-07-27T02:53:03.003Z,11.73
2018-07-27T02:55:43.567Z,11.53
2018-07-27T02:58:24.293Z,10.43
2018-07-27T03:01:05.377Z,10.23
2018-07-27T03:03:46.178Z,10.83
2018-07-27T03:06:27.136Z,11.23
2018-07-27T03:09:10.084Z,10.53
2018-07-27T03:11:51.146Z,9.63
2018-07-27T03:14:32.197Z,9.43
2018-07-27T03:17:13.030Z,9.40
2018-07-27T03:19:53.942Z,9.93
2018-07-27T03:22:34.267Z,11.03
2018-07-27T03:25:15.181Z,10.23
2018-07-27T03:27:55.874Z,9.23
2018-07-27T03:30:36.568Z,9.93
2018-07-27T03:33:17.604Z,9.33
2018-07-27T03:35:58.372Z,9.63
2018-07-27T03:38:40.989Z,9.70
2018-07-27T03:41:21.371Z,9.33
2018-07-27T03:44:02.261Z,9.13
2018-07-27T03:46:42.884Z,8.97
2018-07-27T03:49:23.404Z,9.40
2018-07-27T03:52:04.270Z,9.20
2018-07-27T03:54:45.472Z,9.63
2018-07-27T03:57:26.557Z,9.37
2018-07-27T04:00:10.706Z,10.00
2018-07-27T04:02:51.285Z,10.27
2018-07-27T04:05:31.720Z,10.27
2018-07-27T04:08:12.532Z,9.93
2018-07-27T04:10:53.301Z,10.40
2018-07-27T04:13:34.537Z,11.17
2018-07-27T04:16:15.141Z,10.13
2018-07-27T04:18:56.360Z,10.37
2018-07-27T04:21:37.053Z,12.40
2018-07-27T04:24:18.227Z,14.97
2018-07-27T04:26:59.093Z,16.70
2018-07-27T04:29:40.316Z,17.87
2018-07-27T04:32:21.374Z,18.30
2018-07-27T04:35:01.691Z,17.60
2018-07-27T04:37:42.480Z,19.30
2018-07-27T04:40:23.240Z,19.00
2018-07-27T04:43:03.874Z,18.87
2018-07-27T04:45:44.695Z,21.43
2018-07-27T04:48:25.410Z,20.90
2018-07-27T04:51:06.329Z,21.30
2018-07-27T04:53:47.213Z,19.47
2018-07-27T04:56:28.131Z,19.00
2018-07-27T04:59:09.533Z,18.50
2018-07-27T05:01:50.693Z,17.93
2018-07-27T05:04:31.408Z,15.70
2018-07-27T05:07:12.300Z,16.67
2018-07-27T05:09:53.361Z,17.57
2018-07-27T05:12:34.541Z,15.20
2018-07-27T05:15:15.250Z,13.80
2018-07-27T05:17:55.742Z,12.97
2018-07-27T05:20:36.360Z,11.83
2018-07-27T05:23:17.061Z,11.70
2018-07-27T05:25:57.933Z,11.80
2018-07-27T05:28:38.822Z,12.30
2018-07-27T05:31:19.420Z,11.43
2018-07-27T05:34:00.735Z,12.53
2018-07-27T05:36:43.425Z,11.33
2018-07-27T05:39:24.237Z,12.00
2018-07-27T05:42:04.818Z,12.37
2018-07-27T05:44:45.858Z,12.53
2018-07-27T05:47:26.738Z,12.83
2018-07-27T05:50:08.083Z,13.27
2018-07-27T05:52:49.096Z,12.23
2018-07-27T05:55:30.600Z,11.60
2018-07-27T05:58:11.701Z,11.40
2018-07-27T06:00:52.694Z,10.77
2018-07-27T06:03:33.181Z,13.10
2018-07-27T06:06:13.822Z,12.40
2018-07-27T06:08:54.621Z,16.37
2018-07-27T06:11:35.898Z,15.07
2018-07-27T06:14:16.804Z,13.67
2018-07-27T06:16:57.662Z,14.00
2018-07-27T06:19:38.261Z,17.47
2018-07-27T06:22:19.121Z,18.13
2018-07-27T06:24:59.856Z,21.00
2018-07-27T06:27:40.592Z,20.77
2018-07-27T06:30:21.848Z,20.33
2018-07-27T06:33:03.072Z,20.67
2018-07-27T06:35:44.106Z,19.80
2018-07-27T06:38:24.939Z,18.50
2018-07-27T06:41:05.564Z,19.53
2018-07-27T06:43:46.400Z,18.37
2018-07-27T06:46:27.286Z,18.43
2018-07-27T06:49:08.589Z,17.97
2018-07-27T06:51:49.438Z,16.80
2018-07-27T06:54:29.594Z,15.30
2018-07-27T06:57:10.821Z,16.27
2018-07-27T06:59:51.667Z,15.80
2018-07-27T07:02:32.158Z,14.40
2018-07-27T07:05:13.586Z,14.30
2018-07-27T07:07:54.347Z,14.30
2018-07-27T07:10:35.233Z,12.83
2018-07-27T07:13:15.741Z,12.10
2018-07-27T07:15:56.163Z,12.27
2018-07-27T07:18:36.649Z,12.17
2018-07-27T07:21:17.579Z,11.50
2018-07-27T07:23:58.620Z,11.73
2018-07-27T07:26:39.336Z,10.17
2018-07-27T07:29:20.240Z,10.87
2018-07-27T07:32:00.786Z,11.60
2018-07-27T07:34:41.584Z,10.93
2018-07-27T07:37:22.788Z,10.07
2018-07-27T07:40:03.326Z,9.77
2018-07-27T07:42:44.091Z,9.57
2018-07-27T07:45:24.994Z,10.00
2018-07-27T07:48:06.349Z,10.37
2018-07-27T07:50:46.785Z,10.10
2018-07-27T07:53:27.669Z,9.70
2018-07-27T07:56:08.402Z,9.47
2018-07-27T07:58:48.901Z,10.37
2018-07-27T08:01:29.632Z,9.67
2018-07-27T08:04:10.765Z,11.23
2018-07-27T08:06:51.766Z,10.50
2018-07-27T08:09:32.608Z,11.23
2018-07-27T08:12:13.906Z,10.90
2018-07-27T08:14:55.411Z,9.73
2018-07-27T08:17:35.815Z,9.70
2018-07-27T08:20:16.486Z,9.80
2018-07-27T08:22:57.349Z,9.33
2018-07-27T08:26:07.815Z,9.50
2018-07-27T08:28:48.365Z,8.13
2018-07-27T08:31:28.953Z,8.57
2018-07-27T08:34:10.214Z,7.97
2018-07-27T08:36:51.151Z,7.93
2018-07-27T08:39:33.149Z,7.97
2018-07-27T08:42:13.807Z,7.83
2018-07-27T08:44:54.733Z,7.23
2018-07-27T08:47:35.609Z,7.43
2018-07-27T08:50:16.844Z,7.43
2018-07-27T08:52:57.677Z,7.10
2018-07-27T08:55:38.198Z,7.10
2018-07-27T08:58:19.262Z,7.73
2018-07-27T09:00:59.759Z,7.73
2018-07-27T09:03:40.640Z,7.13
2018-07-27T09:06:21.459Z,7.17
2018-07-27T09:09:02.453Z,7.40
2018-07-27T09:11:43.237Z,6.30
2018-07-27T09:14:24.484Z,6.37
2018-07-27T09:17:05.804Z,6.60
2018-07-27T09:19:46.845Z,7.13
2018-07-27T09:22:28.525Z,5.87
2018-07-27T09:25:09.180Z,5.47
2018-07-27T09:27:50.070Z,5.20
2018-07-27T09:30:30.767Z,5.97
2018-07-27T09:33:11.986Z,5.67
2018-07-27T09:35:53.213Z,6.00
2018-07-27T09:38:34.332Z,5.77
2018-07-27T09:41:15.498Z,5.47
2018-07-27T09:43:56.376Z,4.93
2018-07-27T09:46:37.181Z,5.10
2018-07-27T09:49:17.823Z,5.60
2018-07-27T09:51:58.566Z,4.97
2018-07-27T09:54:38.945Z,5.13
2018-07-27T09:57:19.649Z,4.77
2018-07-27T10:00:00.506Z,4.77
2018-07-27T10:02:41.597Z,4.70
2018-07-27T10:05:22.466Z,4.90
2018-07-27T10:08:03.695Z,5.17
2018-07-27T10:10:44.227Z,4.60
2018-07-27T10:13:25.096Z,4.77
2018-07-27T10:16:06.714Z,4.80
2018-07-27T10:18:47.205Z,4.70
2018-07-27T10:21:28.449Z,5.17
2018-07-27T10:24:09.288Z,5.43
2018-07-27T10:26:50.245Z,5.47
2018-07-27T10:29:31.006Z,5.90
2018-07-27T10:32:12.215Z,5.47
2018-07-27T10:34:52.695Z,5.80
2018-07-27T10:37:33.817Z,5.00
2018-07-27T10:40:15.768Z,5.20
2018-07-27T10:42:56.681Z,5.57
2018-07-27T10:45:38.577Z,5.70
2018-07-27T10:48:19.685Z,5.17
2018-07-27T10:51:00.539Z,5.37
2018-07-27T10:53:41.415Z,5.70
2018-07-27T10:56:22.482Z,5.30
2018-07-27T10:59:03.438Z,5.27
2018-07-27T11:01:44.234Z,5.77
2018-07-27T11:04:25.313Z,6.23
2018-07-27T11:07:06.347Z,5.27
2018-07-27T11:09:47.190Z,5.77
2018-07-27T11:12:28.171Z,5.30
2018-07-27T11:15:10.010Z,5.27
2018-07-27T11:17:51.122Z,5.60
2018-07-27T11:20:32.180Z,5.80
2018-07-27T11:23:13.233Z,6.20
2018-07-27T11:25:53.766Z,6.40
2018-07-27T11:28:34.734Z,6.47
2018-07-27T11:31:15.612Z,6.60
2018-07-27T11:33:56.126Z,6.30
2018-07-27T11:36:37.439Z,6.40
2018-07-27T11:39:17.887Z,6.20
2018-07-27T11:41:58.746Z,6.17
2018-07-27T11:44:39.659Z,6.27
2018-07-27T11:47:20.658Z,5.90
2018-07-27T11:50:01.247Z,5.37
2018-07-27T11:52:42.550Z,5.00
2018-07-27T11:55:23.605Z,4.80
2018-07-27T11:58:04.491Z,4.77
2018-07-27T12:00:45.883Z,4.60
2018-07-27T12:03:26.473Z,4.90
2018-07-27T12:06:06.950Z,4.70
2018-07-27T12:08:47.655Z,4.60
2018-07-27T12:11:28.517Z,4.70
2018-07-27T12:14:09.441Z,4.73
2018-07-27T12:16:50.433Z,4.53
2018-07-27T12:19:31.450Z,5.07
2018-07-27T12:22:12.589Z,5.60
2018-07-27T12:24:53.009Z,4.70
2018-07-27T12:27:34.095Z,4.60
2018-07-27T12:30:15.222Z,4.83
2018-07-27T12:32:56.410Z,4.63
2018-07-27T12:35:37.224Z,5.30
2018-07-27T12:38:18.569Z,5.73
2018-07-27T12:40:59.542Z,5.00
2018-07-27T12:43:40.515Z,5.37
2018-07-27T12:46:21.405Z,6.03
2018-07-27T12:49:02.203Z,5.43
2018-07-27T12:51:42.836Z,5.17
2018-07-27T12:54:23.784Z,5.40
2018-07-27T12:57:04.159Z,5.73
2018-07-27T12:59:44.533Z,6.40
2018-07-27T13:02:25.681Z,5.33
2018-07-27T13:05:06.587Z,5.50
2018-07-27T13:07:49.003Z,6.30
2018-07-27T13:10:29.923Z,6.33
2018-07-27T13:13:10.904Z,5.37
2018-07-27T13:15:51.955Z,5.57
2018-07-27T13:18:32.953Z,6.07
2018-07-27T13:21:14.379Z,6.20
2018-07-27T13:23:59.780Z,5.63
2018-07-27T13:26:40.687Z,6.33
2018-07-27T13:29:21.647Z,5.70
2018-07-27T13:32:02.300Z,6.00
2018-07-27T13:34:46.013Z,6.13
2018-07-27T13:37:28.909Z,6.10
2018-07-27T13:40:09.732Z,6.93
2018-07-27T13:42:50.542Z,6.67
2018-07-27T13:45:31.422Z,5.67
2018-07-27T13:48:11.956Z,6.17
2018-07-27T13:50:52.741Z,6.60
2018-07-27T13:53:33.959Z,6.40
2018-07-27T13:56:14.860Z,6.73
2018-07-27T13:58:55.921Z,6.00
2018-07-27T14:01:36.726Z,6.20
2018-07-27T14:04:17.829Z,5.70
2018-07-27T14:06:59.720Z,6.67
2018-07-27T14:09:40.441Z,6.33
2018-07-27T14:12:21.544Z,6.13
2018-07-27T14:15:02.900Z,5.83
2018-07-27T14:17:44.093Z,6.17
2018-07-27T14:20:24.677Z,6.37
2018-07-27T14:23:05.357Z,5.93
2018-07-27T14:25:46.241Z,6.03
2018-07-27T14:28:27.213Z,6.27
2018-07-27T14:31:07.715Z,6.20
2018-07-27T14:33:48.856Z,6.70
2018-07-27T14:36:29.674Z,5.60
2018-07-27T14:39:14.327Z,6.57
2018-07-27T14:41:54.660Z,5.40
2018-07-27T14:44:35.955Z,5.47
2018-07-27T14:47:16.794Z,5.00
2018-07-27T14:49:57.285Z,5.80
2018-07-27T14:52:38.566Z,5.17
2018-07-27T14:55:19.200Z,4.83
2018-07-27T14:58:00.211Z,5.13
2018-07-27T15:00:41.391Z,5.50
2018-07-27T15:03:22.017Z,5.43
2018-07-27T15:06:02.906Z,5.27
2018-07-27T15:08:44.037Z,5.17
2018-07-27T15:11:24.541Z,5.57
2018-07-27T15:14:05.403Z,5.63
2018-07-27T15:16:45.925Z,5.53
2018-07-27T15:19:27.110Z,5.73
2018-07-27T15:22:07.693Z,5.60
2018-07-27T15:24:48.054Z,6.13
2018-07-27T15:27:29.295Z,6.50
2018-07-27T15:30:10.012Z,6.40
2018-07-27T15:32:50.312Z,6.53
2018-07-27T15:35:31.006Z,6.10
2018-07-27T15:38:11.737Z,6.90
2018-07-27T15:40:52.713Z,7.10
2018-07-27T15:43:33.424Z,7.77
2018-07-27T15:46:14.568Z,7.93
2018-07-27T15:48:55.416Z,7.50
2018-07-27T15:51:35.833Z,7.83
2018-07-27T15:54:16.932Z,7.87
2018-07-27T15:56:58.132Z,6.77
2018-07-27T15:59:38.828Z,7.60
2018-07-27T16:02:19.306Z,8.10
2018-07-27T16:05:00.078Z,11.20
2018-07-27T16:07:40.602Z,8.37
2018-07-27T16:10:21.603Z,8.20
2018-07-27T16:13:02.869Z,7.23
2018-07-27T16:15:44.127Z,6.70
2018-07-27T16:18:24.481Z,7.40
2018-07-27T16:21:05.283Z,7.43
2018-07-27T16:23:45.772Z,7.30
2018-07-27T16:26:26.832Z,6.93
2018-07-27T16:29:07.337Z,6.47
2018-07-27T16:31:48.474Z,6.83
2018-07-27T16:34:28.853Z,6.97
2018-07-27T16:37:09.334Z,7.17
2018-07-27T16:39:50.680Z,6.30
2018-07-27T16:42:31.588Z,6.37
2018-07-27T16:45:11.951Z,7.03
2018-07-27T16:47:53.090Z,9.17
2018-07-27T16:50:34.172Z,7.50
2018-07-27T16:53:14.622Z,7.27
2018-07-27T16:55:55.370Z,7.27
2018-07-27T16:58:36.355Z,7.00
2018-07-27T17:01:17.213Z,6.43
2018-07-27T17:03:57.977Z,6.70
2018-07-27T17:06:38.338Z,6.93
2018-07-27T17:09:19.394Z,5.80
2018-07-27T17:12:00.688Z,6.27
2018-07-27T17:14:41.454Z,6.30
2018-07-27T17:17:22.598Z,6.17
2018-07-27T17:20:03.106Z,6.30
2018-07-27T17:22:44.200Z,6.70
2018-07-27T17:25:24.988Z,6.87
2018-07-27T17:28:05.819Z,6.27
2018-07-27T17:30:47.087Z,6.73
2018-07-27T17:33:27.590Z,6.67
2018-07-27T17:36:08.852Z,6.40
2018-07-27T17:38:49.779Z,6.57
2018-07-27T17:41:31.038Z,6.83
2018-07-27T17:44:12.453Z,7.80
2018-07-27T17:46:53.316Z,7.10
2018-07-27T17:49:33.986Z,7.03
2018-07-27T17:52:14.454Z,8.33
2018-07-27T17:55:02.011Z,7.97
2018-07-27T17:57:42.713Z,8.37
2018-07-27T18:00:23.483Z,7.27
2018-07-27T18:03:04.575Z,7.27
2018-07-27T18:05:45.374Z,8.30
2018-07-27T18:08:25.999Z,8.00
2018-07-27T18:11:06.878Z,8.00
2018-07-27T18:13:47.637Z,6.87
2018-07-27T18:16:28.542Z,7.20
2018-07-27T18:19:08.912Z,7.90
2018-07-27T18:21:50.000Z,7.77
2018-07-27T18:24:30.748Z,8.10
2018-07-27T18:27:11.996Z,7.30
2018-07-27T18:29:53.762Z,7.87
2018-07-27T18:32:34.537Z,7.50
2018-07-27T18:35:14.967Z,8.10
2018-07-27T18:37:56.841Z,8.30
2018-07-27T18:40:37.885Z,7.73
2018-07-27T18:43:18.940Z,8.30
2018-07-27T18:46:00.093Z,7.77
2018-07-27T18:48:40.950Z,8.23
2018-07-27T18:51:21.482Z,7.83
2018-07-27T18:54:02.713Z,8.50
2018-07-27T18:56:43.589Z,8.67
2018-07-27T18:59:24.536Z,8.07
2018-07-27T19:02:05.148Z,7.73
2018-07-27T19:04:46.012Z,8.20
2018-07-27T19:07:26.947Z,9.30
2018-07-27T19:10:08.560Z,8.67
2018-07-27T19:12:49.858Z,9.67
2018-07-27T19:15:30.591Z,9.27
2018-07-27T19:18:11.477Z,9.27
2018-07-27T19:20:52.250Z,10.10
2018-07-27T19:23:33.122Z,9.03
2018-07-27T19:26:14.207Z,9.27
2018-07-27T19:28:54.921Z,8.97
2018-07-27T19:31:35.690Z,9.13
2018-07-27T19:34:16.446Z,9.63
2018-07-27T19:36:57.524Z,8.70
2018-07-27T19:39:38.528Z,10.23
2018-07-27T19:42:19.447Z,9.23
2018-07-27T19:45:00.721Z,8.10
2018-07-27T19:47:41.595Z,8.73
2018-07-27T19:50:22.284Z,9.23
2018-07-27T19:53:03.439Z,9.40
2018-07-27T19:55:44.236Z,9.97
2018-07-27T19:58:24.732Z,9.70
2018-07-27T20:01:05.259Z,9.80
2018-07-27T20:03:46.217Z,10.40
2018-07-27T20:06:28.216Z,10.90
2018-07-27T20:09:10.197Z,10.10
2018-07-27T20:11:51.047Z,9.97
2018-07-27T20:14:32.238Z,10.60
2018-07-27T20:17:12.660Z,10.87
2018-07-27T20:19:53.955Z,11.03
2018-07-27T20:22:35.063Z,10.67
2018-07-27T20:25:15.874Z,11.20
2018-07-27T20:27:57.212Z,10.40
2018-07-27T20:30:38.025Z,10.23
2018-07-27T20:33:18.708Z,10.30
2018-07-27T20:35:59.415Z,11.73
2018-07-27T20:38:40.589Z,14.03
2018-07-27T20:41:21.814Z,13.70
2018-07-27T20:44:02.221Z,13.20
2018-07-27T20:46:43.662Z,13.00
2018-07-27T20:49:24.046Z,13.63
2018-07-27T20:52:04.809Z,14.00
2018-07-27T20:54:45.922Z,14.20
2018-07-27T20:57:26.897Z,12.23
2018-07-27T21:00:11.655Z,13.20
2018-07-27T21:02:52.528Z,12.90
2018-07-27T21:05:33.620Z,13.40
2018-07-27T21:08:14.469Z,13.47
2018-07-27T21:10:54.986Z,13.87
2018-07-27T21:13:36.398Z,12.20
2018-07-27T21:16:17.348Z,13.40
2018-07-27T21:18:58.195Z,12.20
2018-07-27T21:21:39.270Z,12.83
2018-07-27T21:24:20.600Z,13.90
2018-07-27T21:27:01.365Z,12.23
2018-07-27T21:29:42.368Z,12.83
2018-07-27T21:32:23.477Z,12.87
2018-07-27T21:35:04.511Z,12.07
2018-07-27T21:37:45.317Z,12.50
2018-07-27T21:40:26.213Z,14.53
2018-07-27T21:43:06.752Z,13.97
2018-07-27T21:45:48.010Z,13.37
2018-07-27T21:48:29.174Z,12.97
2018-07-27T21:51:09.991Z,12.67
2018-07-27T21:53:50.449Z,14.93
2018-07-27T21:56:31.168Z,13.80
2018-07-27T21:59:12.153Z,14.97
2018-07-27T22:01:52.627Z,13.23
2018-07-27T22:04:33.485Z,15.03
2018-07-27T22:07:14.694Z,14.93
2018-07-27T22:09:55.445Z,15.23
2018-07-27T22:12:36.227Z,16.00
2018-07-27T22:15:22.345Z,14.50
2018-07-27T22:18:03.166Z,14.90
2018-07-27T22:20:43.901Z,16.13
2018-07-27T22:23:25.142Z,14.43
2018-07-27T22:26:06.288Z,14.53
2018-07-27T22:28:47.344Z,13.57
2018-07-27T22:31:28.313Z,14.33
2018-07-27T22:34:09.007Z,14.03
2018-07-27T22:36:49.562Z,13.77
2018-07-27T22:39:30.708Z,13.60
2018-07-27T22:42:11.657Z,13.97
2018-07-27T22:44:52.189Z,15.03
2018-07-27T22:47:32.943Z,14.87
2018-07-27T22:50:13.828Z,21.53
2018-07-27T22:52:54.749Z,15.50
2018-07-27T22:55:35.942Z,14.60
2018-07-27T22:58:16.845Z,16.10
2018-07-27T23:00:57.925Z,16.00
2018-07-27T23:03:38.639Z,16.63
2018-07-27T23:06:19.144Z,14.27
2018-07-27T23:08:59.584Z,13.77
2018-07-27T23:11:40.654Z,14.50
2018-07-27T23:14:21.243Z,14.60
2018-07-27T23:17:02.045Z,11.40
2018-07-27T23:19:42.862Z,11.63
2018-07-27T23:22:23.592Z,10.27
2018-07-27T23:25:04.781Z,11.33
2018-07-27T23:27:45.515Z,11.00
2018-07-27T23:30:26.173Z,11.20
2018-07-27T23:33:06.574Z,10.70
2018-07-27T23:35:47.437Z,11.50
2018-07-27T23:38:28.721Z,10.73
2018-07-27T23:41:11.536Z,10.33
2018-07-27T23:43:51.895Z,10.07
2018-07-27T23:46:32.180Z,9.77
2018-07-27T23:49:12.854Z,9.90
2018-07-27T23:51:53.277Z,9.63
2018-07-27T23:54:33.801Z,9.60
2018-07-27T23:57:14.925Z,9.47
2018-07-27T23:59:55.960Z,9.93
